Flight Track Log - Related Links

Times and Time Zones

All times are in EDT time to prevent confusion due to time zone crossing. See the SWA378 flight status page for this flight to view local times or setup timezone preferences in your user account.

Time Position Orientation Groundspeed Altitude Reporting Facility
EDT Latitude Longitude Course Direction KTS MPH feet Rate Location/Type
Thu 01:27:00 PM 33.8994 -118.5261 213° Southwest 225 259 3,900  Level Los Angeles Center
Thu 01:28:02 PM 33.8303 -118.5256 180° South 267 307 6,400 2,903 Climbing Los Angeles Center
Thu 01:29:04 PM 33.7544 -118.5233 179° South 276 318 9,900 2,903 Climbing Los Angeles Center
Thu 01:30:06 PM 33.6778 -118.4583 145° Southeast 326 375 12,400 2,565 Climbing Los Angeles Center
Thu 01:31:00 PM 33.6333 -118.2191 90° East  Level FlightAware Approximate
Thu 01:31:08 PM 33.6469 -118.3525 109° East 342 394 15,200  Level Los Angeles Center
Thu 01:32:11 PM 33.6442 -118.2303 92° East 377 434 17,400 2,448 Climbing Los Angeles Center
Thu 01:33:13 PM 33.6439 -118.0772 90° East 388 447 20,300 2,468 Climbing Los Angeles Center
Thu 01:34:15 PM 33.6442 -117.9414 90° East 408 470 22,500 2,081 Climbing Los Angeles Center
Thu 01:35:17 PM 33.6436 -117.7994 90° East 425 489 24,600 1,887 Climbing Los Angeles Center
Thu 01:36:19 PM 33.6428 -117.6547 90° East 434 499 26,400 1,645 Climbing Los Angeles Center
Thu 01:37:21 PM 33.6422 -117.5047 90° East 449 517 28,000 1,452 Climbing Los Angeles Center
Thu 01:38:23 PM 33.6417 -117.3486 90° East 466 536 29,400 1,500 Climbing Los Angeles Center
Thu 01:39:25 PM 33.6397 -117.1578 91° East 478 550 31,100 1,597 Climbing Los Angeles Center
Thu 01:40:27 PM 33.6372 -116.9969 91° East 483 556 32,700 1,548 Climbing Los Angeles Center
Thu 01:41:29 PM 33.6633 -116.8253 80° East 479 551 34,300 1,104 Climbing Los Angeles Center
Thu 01:42:32 PM 33.6906 -116.6714 78° East 472 543 35,000 336 Climbing Los Angeles Center
Thu 01:43:34 PM 33.7169 -116.5169 78° East 471 542 35,000  Level Los Angeles Center
Thu 01:44:36 PM 33.7425 -116.3628 79° East 468 539 35,000  Level Los Angeles Center
Thu 01:45:38 PM 33.7692 -116.2097 78° East 467 537 35,000  Level Los Angeles Center
Thu 01:46:40 PM 33.7944 -116.0564 79° East 466 536 35,000  Level Los Angeles Center
Thu 01:47:42 PM 33.8186 -115.9047 79° East 463 533 35,000  Level Los Angeles Center
Thu 01:48:44 PM 33.8497 -115.7231 78° East 463 533 35,000  Level Los Angeles Center
Thu 01:49:46 PM 33.8736 -115.5706 79° East 463 533 35,000 97 Level Los Angeles Center
Thu 01:50:48 PM 33.8983 -115.4169 79° East 467 537 35,200 532 Climbing Los Angeles Center
Thu 01:51:50 PM 33.9231 -115.2622 79° East 470 541 36,100 871 Climbing Los Angeles Center
Thu 01:52:52 PM 33.9469 -115.1072 79° East 472 543 37,000 435 Climbing Los Angeles Center
Thu 01:53:54 PM 33.9722 -114.9525 79° East 471 542 37,000  Level Los Angeles Center
Thu 01:54:57 PM 34.0028 -114.7678 79° East 470 541 37,000  Level Los Angeles Center
Thu 01:55:59 PM 34.0253 -114.6147 80° East 464 534 37,000  Level Los Angeles Center
Thu 01:57:01 PM 34.0531 -114.4631 77° East 463 533 37,000  Level Los Angeles Center
Thu 01:58:03 PM 34.0725 -114.3061 81° East 471 542 37,000  Level Los Angeles Center
Thu 01:58:19 PM 34.0794 -114.2567 80° East 464 534 37,000  Level Albuquerque Center
Thu 01:59:21 PM 34.1033 -114.0975 80° East 469 540 37,000  Level Albuquerque Center
Thu 02:00:23 PM 34.1247 -113.9450 80° East 466 536 37,000  Level Albuquerque Center
Thu 02:01:25 PM 34.1517 -113.7956 78° East 465 535 37,000  Level Albuquerque Center
Thu 02:02:27 PM 34.1792 -113.6100 80° East 467 537 37,000  Level Albuquerque Center
Thu 02:03:29 PM 34.1942 -113.4833 82° East 467 537 37,000  Level Albuquerque Center
Thu 02:04:31 PM 34.2214 -113.2989 80° East 465 535 37,000  Level Albuquerque Center
Thu 02:05:33 PM 34.2417 -113.1447 81° East 466 536 37,000  Level Albuquerque Center
Thu 02:06:34 PM 34.2633 -112.9906 80° East 465 535 37,000  Level Albuquerque Center
Thu 02:07:36 PM 34.2869 -112.8358 79° East 466 536 37,000  Level Albuquerque Center
Thu 02:08:38 PM 34.3078 -112.6814 81° East 466 536 37,000  Level Albuquerque Center
Thu 02:09:40 PM 34.3297 -112.5253 80° East 468 539 37,000  Level Albuquerque Center
Thu 02:10:42 PM 34.3514 -112.3706 80° East 468 539 37,000  Level Albuquerque Center
Thu 02:11:44 PM 34.3753 -112.1831 81° East 468 539 37,000  Level Albuquerque Center
Thu 02:12:46 PM 34.3961 -112.0267 81° East 468 539 37,000  Level Albuquerque Center
Thu 02:13:48 PM 34.4169 -111.8697 81° East 469 540 37,000  Level Albuquerque Center
Thu 02:14:50 PM 34.4372 -111.7125 81° East 470 541 37,000  Level Albuquerque Center
Thu 02:15:51 PM 34.4575 -111.5550 81° East 470 541 37,000  Level Albuquerque Center
Thu 02:16:53 PM 34.4781 -111.3969 81° East 472 543 37,000  Level Albuquerque Center
Thu 02:17:55 PM 34.4981 -111.2389 81° East 473 544 37,000  Level Albuquerque Center
Thu 02:18:57 PM 34.5175 -111.0803 81° East 475 547 37,000  Level Albuquerque Center
Thu 02:19:59 PM 34.5411 -110.8906 81° East 474 545 37,000  Level Albuquerque Center
Thu 02:21:01 PM 34.5603 -110.7325 82° East 475 547 37,000  Level Albuquerque Center
Thu 02:22:03 PM 34.5814 -110.5661 81° East 471 542 37,000  Level Albuquerque Center
Thu 02:23:04 PM 34.6003 -110.4153 81° East 471 542 37,000  Level Albuquerque Center
Thu 02:24:06 PM 34.6194 -110.2389 82° East 472 543 37,000  Level Albuquerque Center
Thu 02:25:08 PM 34.6372 -110.0883 82° East 472 543 37,000  Level Albuquerque Center
Thu 02:26:10 PM 34.6564 -109.9106 82° East 475 547 37,000  Level Albuquerque Center
Thu 02:27:12 PM 34.6750 -109.7592 81° East 475 547 37,000  Level Albuquerque Center
Thu 02:28:14 PM 34.7103 -109.6147 73° East 471 542 37,000  Level Albuquerque Center
Thu 02:29:15 PM 34.7575 -109.4444 71° East 474 545 37,000  Level Albuquerque Center
Thu 02:30:17 PM 34.7997 -109.3008 70° East 473 544 37,000  Level Albuquerque Center
Thu 02:31:19 PM 34.8475 -109.1325 71° East 472 543 37,000  Level Albuquerque Center
Thu 02:32:21 PM 34.8886 -108.9864 71° East 477 549 37,000  Level Albuquerque Center
Thu 02:33:23 PM 34.9264 -108.8144 75° East 476 548 37,000  Level Albuquerque Center
Thu 02:34:24 PM 34.9353 -108.6611 86° East 477 549 37,000  Level Albuquerque Center
Thu 02:35:26 PM 34.9475 -108.4825 85° East 474 545 37,000  Level Albuquerque Center
Thu 02:36:28 PM 34.9572 -108.3289 86° East 476 548 37,000  Level Albuquerque Center
Thu 02:37:30 PM 34.9683 -108.1503 86° East 475 547 37,000  Level Albuquerque Center
Thu 02:38:32 PM 34.9775 -107.9967 86° East 476 548 37,000  Level Albuquerque Center
Thu 02:39:34 PM 34.9872 -107.8236 86° East 473 544 37,000  Level Albuquerque Center
Thu 02:40:35 PM 34.9953 -107.6644 86° East 472 543 37,000  Level Albuquerque Center
Thu 02:41:37 PM 35.0033 -107.5072 86° East 469 540 37,000  Level Albuquerque Center
Thu 02:42:39 PM 35.0122 -107.3483 86° East 469 540 37,000  Level Albuquerque Center
Thu 02:43:41 PM 35.0211 -107.1706 86° East 469 540 37,000  Level Albuquerque Center
Thu 02:44:43 PM 35.0306 -107.0108 86° East 470 541 37,000  Level Albuquerque Center
Thu 02:45:44 PM 35.0369 -106.8578 87° East 472 543 37,000  Level Albuquerque Center
Thu 02:46:46 PM 35.0447 -106.6819 87° East 467 537 37,000  Level Albuquerque Center
Thu 02:47:48 PM 35.0522 -106.5336 86° East 478 550 37,000  Level Albuquerque Center
Thu 02:48:50 PM 35.0594 -106.3686 87° East 487 560 37,000  Level Albuquerque Center
Thu 02:49:51 PM 35.0667 -106.2086 87° East 478 550 37,000  Level Albuquerque Center
Thu 02:50:53 PM 35.0733 -106.0153 88° East 477 549 37,000  Level Albuquerque Center
Thu 02:51:55 PM 35.0811 -105.8569 87° East 476 548 37,000  Level Albuquerque Center
Thu 02:52:57 PM 35.0889 -105.6942 87° East 476 548 37,000  Level Albuquerque Center
Thu 02:53:59 PM 35.0944 -105.5303 88° East 478 550 37,000  Level Albuquerque Center
Thu 02:55:00 PM 35.1003 -105.3681 87° East 476 548 37,000  Level Albuquerque Center
Thu 02:56:02 PM 35.1053 -105.2050 88° East 476 548 37,000  Level Albuquerque Center
Thu 02:57:04 PM 35.1122 -105.0156 87° East 476 548 37,000  Level Albuquerque Center
Thu 02:58:06 PM 35.1206 -104.8531 86° East 475 547 37,000  Level Albuquerque Center
Thu 02:59:08 PM 35.1292 -104.6911 86° East 474 545 37,000  Level Albuquerque Center
Thu 03:00:09 PM 35.1372 -104.5339 86° East 474 545 37,000  Level Albuquerque Center
Thu 03:01:11 PM 35.1461 -104.3733 86° East 476 548 37,000  Level Albuquerque Center
Thu 03:02:13 PM 35.1519 -104.2111 87° East 477 549 37,000  Level Albuquerque Center
Thu 03:03:15 PM 35.1597 -104.0508 87° East 475 547 37,000  Level Albuquerque Center
Thu 03:04:17 PM 35.1661 -103.8625 88° East 475 547 37,000  Level Albuquerque Center
Thu 03:05:19 PM 35.1731 -103.7003 87° East 476 548 37,000  Level Albuquerque Center
Thu 03:06:20 PM 35.1792 -103.5389 87° East 473 544 37,000  Level Albuquerque Center
Thu 03:07:22 PM 35.1853 -103.3786 87° East 471 542 37,000  Level Albuquerque Center
Thu 03:08:24 PM 35.1919 -103.2178 87° East 471 542 37,000  Level Albuquerque Center
Thu 03:09:26 PM 35.1975 -103.0575 88° East 469 540 37,000  Level Albuquerque Center
Thu 03:10:28 PM 35.2033 -102.8692 88° East 470 541 37,000  Level Albuquerque Center
Thu 03:11:29 PM 35.2069 -102.7100 88° East 470 541 37,000  Level Albuquerque Center
Thu 03:12:31 PM 35.2125 -102.5511 88° East 469 540 37,000  Level Albuquerque Center
Thu 03:13:33 PM 35.2172 -102.3914 88° East 470 541 37,000  Level Albuquerque Center
Thu 03:14:35 PM 35.2214 -102.2317 88° East 472 543 37,000  Level Albuquerque Center
Thu 03:15:37 PM 35.2258 -102.0706 88° East 474 545 37,000  Level Albuquerque Center
Thu 03:16:38 PM 35.2308 -101.8992 88° East 478 550 37,000  Level Albuquerque Center
Thu 03:17:40 PM 35.2342 -101.7347 89° East 479 551 37,000  Level Albuquerque Center
Thu 03:18:42 PM 35.2419 -101.5694 87° East 478 550 37,000  Level Albuquerque Center
Thu 03:19:44 PM 35.2514 -101.4072 86° East 479 551 37,000  Level Albuquerque Center
Thu 03:20:46 PM 35.2569 -101.2122 88° East 476 548 37,000  Level Albuquerque Center
Thu 03:21:48 PM 35.2642 -101.0517 87° East 476 548 37,000  Level Albuquerque Center
Thu 03:22:50 PM 35.2708 -100.8911 87° East 475 547 37,000  Level Albuquerque Center
Thu 03:23:52 PM 35.2775 -100.7306 87° East 474 545 37,000  Level Albuquerque Center
Thu 03:24:53 PM 35.2847 -100.5686 87° East 474 545 37,000  Level Albuquerque Center
Thu 03:25:55 PM 35.2900 -100.4064 88° East 475 547 37,000  Level Albuquerque Center
Thu 03:26:57 PM 35.2956 -100.2447 88° East 476 548 37,000  Level Albuquerque Center
Thu 03:27:59 PM 35.3019 -100.0497 88° East 477 549 37,000  Level Albuquerque Center
Thu 03:29:01 PM 35.3081 -99.8858 87° East 480 552 37,000  Level Albuquerque Center
Thu 03:30:02 PM 35.3136 -99.7231 88° East 480 552 37,000  Level Albuquerque Center
Thu 03:31:04 PM 35.3175 -99.5592 88° East 483 556 37,000 145 Level Albuquerque Center
Thu 03:32:06 PM 35.3231 -99.3953 88° East 484 557 37,300 512 Climbing Albuquerque Center
Thu 03:32:26 PM 35.3228 -99.3219 90° East 481 554 37,700 1,050 Climbing Fort Worth Center
Thu 03:33:26 PM 35.3272 -99.1539 88° East 481 554 38,700 650 Climbing Fort Worth Center
Thu 03:34:26 PM 35.3317 -98.9886 88° East 481 554 39,000 150 Climbing Fort Worth Center
Thu 03:35:26 PM 35.3378 -98.8258 87° East 481 554 39,000  Level Fort Worth Center
Thu 03:36:26 PM 35.3417 -98.6631 88° East 476 548 39,000  Level Fort Worth Center
Thu 03:37:26 PM 35.3453 -98.4953 88° East 476 548 39,000  Level Fort Worth Center
Thu 03:38:26 PM 35.3464 -98.3500 89° East 476 548 39,000  Level Fort Worth Center
Thu 03:39:26 PM 35.3497 -98.1847 89° East 476 548 39,000  Level Fort Worth Center
Thu 03:40:26 PM 35.3525 -98.0167 89° East 481 554 39,000  Level Fort Worth Center
Thu 03:41:26 PM 35.3553 -97.8464 89° East 486 559 39,000  Level Fort Worth Center
Thu 03:42:26 PM 35.3558 -97.6581 90° East 498 573 39,000  Level Fort Worth Center
Thu 03:43:26 PM 35.3625 -97.4875 87° East 498 573 39,000  Level Fort Worth Center
Thu 03:44:26 PM 35.3644 -97.3142 89° East 498 573 39,000  Level Fort Worth Center
Thu 03:45:26 PM 35.3664 -97.1386 89° East 498 573 39,000  Level Fort Worth Center
Thu 03:46:26 PM 35.3700 -96.9731 88° East 498 573 39,000  Level Fort Worth Center
Thu 03:47:26 PM 35.3714 -96.8050 89° East 498 573 39,000  Level Fort Worth Center
Thu 03:48:26 PM 35.3747 -96.6319 89° East 498 573 39,000  Level Fort Worth Center
Thu 03:49:26 PM 35.3775 -96.4614 89° East 498 573 39,000  Level Fort Worth Center
Thu 03:50:26 PM 35.3783 -96.2908 90° East 498 573 39,000  Level Fort Worth Center
Thu 03:51:26 PM 35.3808 -96.1150 89° East 498 573 39,000  Level Fort Worth Center
Thu 03:52:26 PM 35.3831 -95.9419 89° East 498 573 39,000  Level Fort Worth Center
Thu 03:53:26 PM 35.3853 -95.7892 89° East 498 573 39,000  Level Fort Worth Center
Thu 03:54:26 PM 35.3869 -95.6108 89° East 503 579 39,000  Level Fort Worth Center
Thu 03:56:32 PM 35.3881 -95.2239 90° East 513 590 39,000  Level Memphis Center
Thu 03:57:32 PM 35.3864 -95.0481 91° East 508 585 39,000  Level Memphis Center
Thu 03:58:32 PM 35.3869 -94.8672 90° East 518 596 39,000  Level Memphis Center
Thu 03:59:32 PM 35.3869 -94.6917 90° East 518 596 39,000  Level Memphis Center
Thu 04:00:32 PM 35.3869 -94.5083 90° East 518 596 39,000  Level Memphis Center
Thu 04:01:32 PM 35.3861 -94.3400 90° East 532 612 39,000 -900 Level Memphis Center
Thu 04:02:32 PM 35.3856 -94.1567 90° East 538 619 37,200 -1,900 Descending Memphis Center
Thu 04:03:32 PM 35.3719 -93.9803 95° East 533 613 35,200 -2,050 Descending Memphis Center
Thu 04:04:32 PM 35.3561 -93.8092 96° East 521 600 33,100 -2,300 Descending Memphis Center
Thu 04:05:32 PM 35.3419 -93.6356 96° East 516 594 30,600 -2,050 Descending Memphis Center
Thu 04:06:32 PM 35.3256 -93.4644 97° East 511 588 29,000 -800 Descending Memphis Center
Thu 04:07:32 PM 35.3069 -93.2753 97° East 503 579 29,000  Level Memphis Center
Thu 04:08:32 PM 35.2922 -93.1069 96° East 498 573 29,000  Level Memphis Center
Thu 04:09:32 PM 35.2750 -92.9283 97° East 511 588 29,000 -350 Level Memphis Center
Thu 04:10:32 PM 35.2617 -92.7703 96° East 503 579 28,300 -800 Descending Memphis Center
Thu 04:11:32 PM 35.2458 -92.6122 97° East 498 573 27,400 -650 Descending Memphis Center
Thu 04:12:32 PM 35.2297 -92.4517 97° East 498 573 27,000 -200 Descending Memphis Center
Thu 04:13:32 PM 35.2114 -92.2911 98° East 486 559 27,000  Level Memphis Center
Thu 04:14:32 PM 35.1950 -92.1306 97° East 480 552 27,000  Level Memphis Center
Thu 04:15:32 PM 35.1786 -91.9525 96° East 480 552 27,000  Level Memphis Center
Thu 04:16:32 PM 35.1597 -91.7922 98° East 480 552 27,000  Level Memphis Center
Thu 04:17:32 PM 35.1428 -91.6344 97° East 480 552 27,000  Level Memphis Center
Thu 04:18:32 PM 35.1275 -91.4742 97° East 480 552 27,000  Level Memphis Center
Thu 04:19:32 PM 35.1142 -91.3369 97° East 475 547 27,000  Level Memphis Center
Thu 04:20:32 PM 35.0944 -91.1767 99° East 469 540 27,000  Level Memphis Center
Thu 04:21:32 PM 35.0767 -91.0067 97° East 469 540 27,000  Level Memphis Center
Thu 04:22:32 PM 35.0586 -90.8542 98° East 461 531 27,000  Level Memphis Center
Thu 04:23:32 PM 35.0422 -90.6994 97° East 461 531 27,000  Level Memphis Center
Thu 04:24:32 PM 35.0239 -90.5497 98° East 456 525 27,000  Level Memphis Center
Thu 04:25:32 PM 35.0053 -90.4003 99° East 446 513 27,000  Level Memphis Center
Thu 04:26:32 PM 34.9886 -90.2481 98° East 446 513 27,000  Level Memphis Center
Thu 04:27:32 PM 34.9717 -90.0986 98° East 446 513 27,000  Level Memphis Center
Thu 04:28:32 PM 34.9544 -89.9492 98° East 446 513 27,000  Level Memphis Center
Thu 04:29:32 PM 34.9394 -89.8125 98° East 446 513 27,000 -250 Level Memphis Center
Thu 04:30:32 PM 34.9197 -89.6506 98° East 465 535 26,500 -700 Descending Memphis Center
Thu 04:31:32 PM 34.8958 -89.4836 100° East 465 535 25,600 -750 Descending Memphis Center
Thu 04:32:32 PM 34.8758 -89.3344 99° East 465 535 25,000 -300 Descending Memphis Center
Thu 04:33:32 PM 34.8558 -89.1853 99° East 451 519 25,000  Level Memphis Center
Thu 04:34:32 PM 34.8375 -89.0414 99° East 436 502 25,000  Level Memphis Center
Thu 04:35:32 PM 34.8172 -88.9000 100° East 431 496 25,000  Level Memphis Center
Thu 04:36:32 PM 34.8008 -88.7586 98° East 421 484 25,000  Level Memphis Center
Thu 04:37:32 PM 34.7844 -88.6250 98° East 416 479 25,000  Level Memphis Center
Thu 04:38:32 PM 34.7658 -88.4989 100° East 416 479 25,000  Level Memphis Center
Thu 04:39:32 PM 34.7450 -88.3553 100° East 408 470 25,000  Level Memphis Center
Thu 04:40:32 PM 34.7281 -88.2219 99° East 403 464 25,000  Level Memphis Center
Thu 04:41:32 PM 34.7111 -88.0908 99° East 419 482 25,000  Level Memphis Center
Thu 04:42:32 PM 34.6900 -87.9603 101° East 413 475 25,000  Level Memphis Center
Thu 04:43:32 PM 34.6747 -87.8242 98° East 408 470 25,000  Level Memphis Center
Thu 04:44:32 PM 34.6553 -87.6911 100° East 408 470 25,000  Level Memphis Center
Thu 04:45:32 PM 34.6311 -87.5403 101° East 408 470 25,000  Level Memphis Center
Thu 04:47:10 PM 34.5981 -87.3167 100° East 425 489 25,000  Level Atlanta Center
Thu 04:48:10 PM 34.5722 -87.1794 103° East 425 489 25,000  Level Atlanta Center
Thu 04:49:10 PM 34.5464 -87.0450 103° East 418 481 25,000  Level Atlanta Center
Thu 04:50:10 PM 34.5206 -86.9053 103° East 418 481 25,000  Level Atlanta Center
Thu 04:51:10 PM 34.4922 -86.7708 104° East 412 474 25,000  Level Atlanta Center
Thu 04:52:10 PM 34.4661 -86.6339 103° East 412 474 25,000  Level Atlanta Center
Thu 04:53:10 PM 34.4417 -86.4969 102° East 412 474 25,000  Level Atlanta Center
Thu 04:54:10 PM 34.4131 -86.3603 104° East 412 474 25,000  Level Atlanta Center
Thu 04:55:10 PM 34.3864 -86.2236 103° East 412 474 25,000  Level Atlanta Center
Thu 04:56:10 PM 34.3594 -86.0869 103° East 412 474 25,000  Level Atlanta Center
Thu 04:57:10 PM 34.3306 -85.9506 104° East 412 474 25,000 -350 Level Atlanta Center
Thu 04:58:10 PM 34.3111 -85.8394 102° East 412 474 24,300 -950 Descending Atlanta Center
Thu 04:59:10 PM 34.2781 -85.6803 104° East 407 468 23,100 -1,100 Descending Atlanta Center
Thu 05:00:10 PM 34.2525 -85.5492 103° East 407 468 22,100 -1,400 Descending Atlanta Center
Thu 05:01:10 PM 34.2186 -85.4231 108° East 397 457 20,300 -1,800 Descending Atlanta Center
Thu 05:02:10 PM 34.1781 -85.3017 112° Southeast 397 457 18,500 -1,850 Descending Atlanta Center
Thu 05:03:10 PM 34.1417 -85.1833 110° East 379 436 16,600 -1,950 Descending Atlanta Center
Thu 05:04:10 PM 34.1031 -85.0675 112° Southeast 374 430 14,600 -1,300 Descending Atlanta Center
Thu 05:05:10 PM 34.0433 -84.9664 125° Southeast 368 423 14,000 -250 Descending Atlanta Center
Thu 05:06:10 PM 33.9750 -84.8806 134° Southeast 357 411 14,100  Climbing Atlanta Center
Thu 05:07:10 PM 33.9067 -84.7922 133° Southeast 357 411 14,000 -500 Descending Atlanta Center
Thu 05:08:10 PM 33.8300 -84.7139 140° Southeast 357 411 13,100 -1,026 Descending Atlanta Center
Thu 05:08:26 PM 33.8000 -84.7000 159° South 359 413 12,700 -868 Descending Atlanta TRACON
Thu 05:09:26 PM 33.7167 -84.6500 153° Southeast 341 392 12,000 -400 Descending Atlanta TRACON
Thu 05:10:26 PM 33.6333 -84.6000 153° Southeast 305 351 11,900  Descending Atlanta TRACON
Thu 05:11:26 PM 33.5667 -84.5667 157° South 281 323 12,000 -684 Climbing Atlanta TRACON
Thu 05:12:20 PM 33.5500 -84.4833 103° East 277 319 10,600 -1,600 Descending Atlanta TRACON
Thu 05:13:26 PM 33.5500 -84.3833 90° East 257 296 8,800 -1,524 Descending Atlanta TRACON
Thu 05:14:26 PM 33.5500 -84.3167 90° East 232 267 7,400 -1,650 Descending Atlanta TRACON
Thu 05:15:26 PM 33.5500 -84.2333 90° East 234 269 5,500 -1,800 Descending Atlanta TRACON
Thu 05:16:26 PM 33.6167 -84.2333 360° North 216 249 3,800 -1,368 Descending Atlanta TRACON
Thu 05:17:20 PM 33.6333 -84.2833 292° West 180 207 2,900 -947 Descending Atlanta TRACON
Thu 05:18:20 PM 33.6333 -84.3500 270° West 167 192 2,000 -762 Descending Atlanta TRACON
Thu 05:19:26 PM 33.6333 -84.4000 270° West 132 152 1,300 -636 Descending Atlanta TRACON
Thu 05:21:00 PM 33.6333 -84.4167 303° West  Level FlightAware Approximate
Thu 05:28:00 PM 33.6367 -84.4279 303° West  Level Estimated

Login

Don't have an account? Register now (free) for customized features, flight alerts, and more!